Maasbracht, Netherlands
Current Conditions -  °F | °C
As of 1:50 PM on Tuesday 21 Oct 2014 (Local Time) from ETNG Reporting Station
Broken Clouds Broken Clouds  
Wind Chill: 55°   Ceiling: 2200
Heat Index: 55°   Visibility: 6mi
Dew Point: 52°   Wind: 15mph
Humidity: 88%   Direction: 220°SW
Pressure: 29.59"   Gusts: 30mph
Location:  51.14°N, 5.89°E
Report Text: ETNG 211150Z 22013G26KT 9999 FEW012 SCT017 BKN022 13/11 Q1002 BECMG 5000 RA
Loading
Personal Weather Stations






























Interactive Weather Map
Tropical Storm Tracking
New forecast layout! Learn more

10-Day Weather Forecast

Advertisements
Track Severe Weather on mobile